Alinda, Pennsylvania
Current Conditions -  °F | °C
As of 8:56 PM on Friday 28 Nov 2014 (Local Time) from KCXY Reporting Station
Clear Clear  
Wind Chill: -6°   Ceiling: Unl
Heat Index: -3°   Visibility: 10mi
Dew Point: -9°   Wind: 5mph
Humidity: 66%   Direction: 280°W
Pressure: 30.28"   Gusts: NA
Location:  40.3086°N, 77.3363°W
Report Text: KCXY 290156Z AUTO 28004KT 10SM CLR M03/M09 A3028 RMK AO2 SLP258 T10331089
Loading
Personal Weather Stations






























Interactive Weather Map New forecast layout! Learn more

10-Day Weather Forecast

Advertisements
Track Severe Weather on mobile